Time;durP1;ratioP1;P1;durP2;ratioP2;P2;SDS_P1;SDS_P2;PMS_P1;PMS_P2;Temp;Humidity;BMP_temperature;BMP_pressure;BME280_temperature;BME280_humidity;BME280_pressure;Samples;Min_cycle;Max_cycle;Signal;HPM_P1;HPM_P2
2021/09/28 00:09:51;;;;;;;4.20;0.90;;;;;;;14.96;89.17;101178.47;20588705;28;20117;-82
2021/09/28 00:19:53;;;;;;;5.75;1.10;;;;;;;14.76;90.35;101185.94;20573599;28;20051;-82
2021/09/28 00:29:56;;;;;;;3.47;1.02;;;;;;;14.56;89.98;101174.03;20650504;28;20105;-85
2021/09/28 00:39:57;;;;;;;4.85;1.20;;;;;;;14.44;90.06;101174.22;20649568;28;20097;-82
2021/09/28 00:49:59;;;;;;;3.38;0.98;;;;;;;14.21;90.69;101189.59;20649166;28;20047;-81
2021/09/28 01:00:04;;;;;;;3.30;1.13;;;;;;;14.16;91.41;101197.56;20650955;28;20062;-81
2021/09/28 01:10:10;;;;;;;5.28;1.40;;;;;;;14.10;90.62;101209.09;20648444;28;20042;-82
2021/09/28 01:20:12;;;;;;;4.88;1.33;;;;;;;13.91;91.33;101218.19;20649247;28;20046;-81
2021/09/28 01:30:14;;;;;;;4.30;0.90;;;;;;;13.77;89.98;101214.91;20644923;28;20109;-81
2021/09/28 01:40:16;;;;;;;5.90;1.17;;;;;;;13.57;89.47;101217.88;20643432;28;20046;-83
2021/09/28 01:50:18;;;;;;;7.72;1.45;;;;;;;13.42;89.85;101226.84;20663671;28;20093;-81
2021/09/28 02:00:20;;;;;;;7.97;1.23;;;;;;;13.22;90.20;101235.03;20660912;28;20054;-84
2021/09/28 02:10:22;;;;;;;6.00;1.40;;;;;;;13.04;90.83;101237.84;20661000;28;20050;-81
2021/09/28 02:20:24;;;;;;;5.35;1.48;;;;;;;12.95;90.70;101238.81;20659165;28;20043;-81
2021/09/28 02:30:26;;;;;;;4.78;1.42;;;;;;;12.78;90.57;101227.63;20641051;28;20107;-82
2021/09/28 02:40:28;;;;;;;10.60;2.95;;;;;;;12.64;91.01;101235.66;20668885;28;20054;-81
2021/09/28 02:50:33;;;;;;;8.32;3.15;;;;;;;12.53;90.72;101221.78;20657304;28;20046;-82
2021/09/28 03:00:35;;;;;;;12.00;3.00;;;;;;;12.40;90.81;101222.78;20656798;28;20544;-82
2021/09/28 03:10:38;;;;;;;10.10;4.30;;;;;;;12.34;89.99;101234.22;20658464;28;20053;-81
2021/09/28 03:20:39;;;;;;;11.93;4.03;;;;;;;12.33;90.64;101240.38;20658106;28;20488;-82
2021/09/28 03:30:41;;;;;;;7.03;2.80;;;;;;;12.15;91.02;101248.41;20658589;28;20077;-81
2021/09/28 03:40:43;;;;;;;9.05;3.60;;;;;;;12.11;91.11;101254.56;20656122;28;20081;-82
2021/09/28 03:50:45;;;;;;;9.70;3.38;;;;;;;12.03;91.61;101252.88;20655742;28;20559;-83
2021/09/28 04:00:46;;;;;;;8.90;3.58;;;;;;;11.95;91.11;101261.69;20657888;28;20042;-81
2021/09/28 04:10:49;;;;;;;8.35;3.92;;;;;;;11.79;91.86;101271.41;20655823;28;20209;-82
2021/09/28 04:20:51;;;;;;;8.85;3.38;;;;;;;11.71;91.66;101279.31;20653954;28;20112;-82
2021/09/28 04:30:53;;;;;;;12.63;4.25;;;;;;;11.69;92.97;101280.19;20651950;28;20047;-81
2021/09/28 04:40:55;;;;;;;11.77;5.30;;;;;;;11.53;92.63;101279.41;20650232;28;20054;-81
2021/09/28 04:50:57;;;;;;;12.15;5.07;;;;;;;11.46;92.47;101286.47;20653704;28;20050;-84
2021/09/28 05:00:58;;;;;;;12.38;5.22;;;;;;;11.39;92.34;101297.84;20663031;28;20050;-81
2021/09/28 05:11:01;;;;;;;12.50;5.95;;;;;;;11.28;92.80;101294.41;20651694;28;20077;-81
2021/09/28 05:21:03;;;;;;;11.15;5.68;;;;;;;11.19;92.61;101284.81;20653069;28;20101;-82
2021/09/28 05:31:05;;;;;;;11.05;5.60;;;;;;;11.13;92.18;101284.88;20657535;28;20046;-82
2021/09/28 05:41:09;;;;;;;13.32;5.78;;;;;;;11.13;92.58;101299.72;20658879;28;20049;-81
2021/09/28 05:51:19;;;;;;;12.10;6.43;;;;;;;11.27;92.05;101292.69;20653875;28;20105;-81
2021/09/28 06:01:20;;;;;;;15.15;7.25;;;;;;;11.42;91.97;101297.84;20647529;28;20058;-82
2021/09/28 06:11:22;;;;;;;15.70;6.95;;;;;;;11.57;91.29;101295.13;20635794;28;20070;-82
2021/09/28 06:21:24;;;;;;;12.57;6.22;;;;;;;11.65;91.35;101294.25;20659373;28;20054;-81
2021/09/28 06:31:26;;;;;;;13.70;6.72;;;;;;;11.81;91.45;101309.00;20666049;28;20101;-82
2021/09/28 06:41:28;;;;;;;15.60;6.63;;;;;;;11.89;90.95;101301.97;20671792;28;20488;-84
2021/09/28 06:51:29;;;;;;;13.43;7.10;;;;;;;11.97;90.95;101300.16;20682025;28;20046;-83
2021/09/28 07:01:31;;;;;;;17.92;7.20;;;;;;;12.11;90.32;101299.19;20679199;28;20124;-83
2021/09/28 07:11:33;;;;;;;16.95;7.93;;;;;;;12.41;89.89;101290.19;20674797;28;20062;-82
2021/09/28 07:21:35;;;;;;;14.55;7.72;;;;;;;12.73;89.47;101296.00;20703122;28;20050;-82
2021/09/28 07:31:37;;;;;;;17.30;7.85;;;;;;;13.00;87.61;101294.84;20744172;28;20385;-83
2021/09/28 07:41:39;;;;;;;12.40;7.30;;;;;;;13.20;85.90;101296.38;20696732;28;20092;-82
2021/09/28 07:51:41;;;;;;;15.02;7.80;;;;;;;13.30;84.72;101300.66;20676799;28;20046;-82
2021/09/28 08:01:42;;;;;;;13.52;6.40;;;;;;;13.59;83.23;101311.66;20658787;28;20046;-82
2021/09/28 08:11:44;;;;;;;14.43;7.00;;;;;;;13.64;81.79;101297.56;20675918;28;20076;-82
2021/09/28 08:21:47;;;;;;;11.50;5.90;;;;;;;13.74;81.15;101309.72;20743128;28;20050;-84
2021/09/28 08:31:51;;;;;;;14.60;5.75;;;;;;;13.85;81.58;101287.63;20745088;28;20045;-84
2021/09/28 08:41:53;;;;;;;12.10;5.85;;;;;;;14.18;79.60;101290.63;20736707;28;20104;-84
2021/09/28 08:51:55;;;;;;;15.77;5.63;;;;;;;14.74;76.93;101295.81;20739217;28;20463;-80
2021/09/28 09:02:06;;;;;;;12.18;4.90;;;;;;;14.84;74.89;101292.97;20740041;28;20531;-80
2021/09/28 09:12:08;;;;;;;13.77;5.03;;;;;;;15.39;75.32;101281.31;20724657;28;20066;-81
2021/09/28 09:22:10;;;;;;;8.98;3.35;;;;;;;15.97;72.71;101265.09;20665601;28;20055;-83
2021/09/28 09:32:12;;;;;;;5.40;2.33;;;;;;;15.95;70.76;101267.75;20658784;28;20050;-84
2021/09/28 09:42:16;;;;;;;9.80;3.25;;;;;;;16.19;70.80;101260.13;20680644;28;20344;-83
2021/09/28 09:52:18;;;;;;;9.20;3.15;;;;;;;16.10;66.90;101248.91;20661632;28;20065;-83
2021/09/28 10:02:19;;;;;;;9.73;3.90;;;;;;;16.20;68.70;101232.81;20659377;28;20050;-83
2021/09/28 10:12:22;;;;;;;9.00;2.72;;;;;;;16.91;68.40;101208.84;20700452;28;20081;-81
2021/09/28 10:22:37;;;;;;;6.18;2.60;;;;;;;17.60;62.79;101204.97;20735560;28;20058;-81
2021/09/28 10:32:39;;;;;;;10.10;2.50;;;;;;;17.23;62.40;101191.16;20737874;28;20049;-80
2021/09/28 10:43:03;;;;;;;7.63;1.75;;;;;;;17.77;58.59;101179.75;20757045;28;20096;-81
2021/09/28 10:53:28;;;;;;;7.68;1.90;;;;;;;18.15;57.87;101167.84;20730829;28;20108;-81
2021/09/28 11:03:51;;;;;;;6.47;1.77;;;;;;;17.88;59.09;101145.84;20740233;28;20100;-81
2021/09/28 11:14:00;;;;;;;7.82;2.10;;;;;;;17.69;58.01;101133.16;20729020;28;20383;-81
2021/09/28 11:24:02;;;;;;;6.15;1.67;;;;;;;17.54;56.50;101132.81;20666799;28;20054;-81
2021/09/28 11:34:04;;;;;;;9.40;1.90;;;;;;;17.96;55.70;101119.91;20680491;28;20066;-82
2021/09/28 11:44:06;;;;;;;5.13;2.03;;;;;;;18.59;56.38;101102.63;20668736;28;20050;-82
2021/09/28 11:54:14;;;;;;;8.82;1.80;;;;;;;18.57;55.17;101085.88;20687724;28;20046;-82
2021/09/28 12:14:51;;;;;;;5.53;1.35;;;;;;;18.43;53.16;101051.94;20730893;28;20042;-82
2021/09/28 12:24:54;;;;;;;5.38;1.58;;;;;;;18.33;53.79;101044.38;20670845;28;20058;-81
2021/09/28 12:35:03;;;;;;;5.57;1.70;;;;;;;18.26;55.16;101029.66;20675071;28;20050;-81
2021/09/28 12:45:09;;;;;;;9.43;1.60;;;;;;;18.00;55.71;101018.19;20666734;28;20081;-82
2021/09/28 12:55:17;;;;;;;5.07;1.38;;;;;;;18.42;53.47;101018.38;20683227;28;20482;-83
2021/09/28 13:05:21;;;;;;;6.05;1.58;;;;;;;18.25;52.17;101004.03;20727122;28;20038;-81
2021/09/28 13:15:23;;;;;;;4.97;1.33;;;;;;;18.70;54.25;100983.72;20739735;28;20060;-81
2021/09/28 13:25:28;;;;;;;5.82;1.85;;;;;;;18.33;52.83;100960.41;20764170;28;20495;-81
2021/09/28 13:35:32;;;;;;;4.32;1.50;;;;;;;18.44;52.07;100954.69;20704304;28;20042;-81
2021/09/28 13:45:37;;;;;;;6.00;1.70;;;;;;;18.50;51.60;100943.00;20649628;28;20459;-81
2021/09/28 13:55:42;;;;;;;7.68;1.67;;;;;;;18.54;54.47;100944.56;20659488;28;20519;-83
2021/09/28 14:05:44;;;;;;;7.00;1.60;;;;;;;18.45;52.12;100930.78;20655043;28;20042;-83
2021/09/28 14:15:45;;;;;;;9.43;2.03;;;;;;;18.14;53.26;100931.09;20654812;28;20054;-82
2021/09/28 14:25:47;;;;;;;6.20;1.50;;;;;;;18.39;49.10;100912.44;20664076;28;20047;-81
2021/09/28 14:35:49;;;;;;;7.40;1.50;;;;;;;18.31;49.07;100898.63;20667624;28;20054;-81
2021/09/28 14:45:51;;;;;;;3.60;1.20;;;;;;;18.19;48.81;100883.22;20695370;28;20065;-82
2021/09/28 14:55:53;;;;;;;4.05;1.38;;;;;;;18.17;50.02;100870.03;20674958;28;20051;-81
2021/09/28 15:05:55;;;;;;;5.25;1.48;;;;;;;18.07;51.38;100868.66;20679658;28;20051;-80
2021/09/28 15:15:59;;;;;;;5.57;1.50;;;;;;;17.95;51.19;100855.88;20687435;28;20412;-81
2021/09/28 15:26:00;;;;;;;5.88;2.00;;;;;;;17.92;52.34;100853.38;20682482;28;20050;-80
2021/09/28 15:36:03;;;;;;;6.10;1.83;;;;;;;17.81;53.16;100855.56;20687768;28;20042;-82
2021/09/28 15:46:05;;;;;;;6.47;2.20;;;;;;;17.58;54.48;100857.28;20667710;28;20091;-81
2021/09/28 15:56:09;;;;;;;5.85;1.83;;;;;;;17.58;55.64;100859.94;20685864;28;20062;-80
2021/09/28 16:06:12;;;;;;;5.77;1.80;;;;;;;17.56;56.49;100839.72;20660734;28;20070;-80
2021/09/28 16:16:15;;;;;;;7.57;2.55;;;;;;;17.55;56.05;100838.84;20694519;28;20141;-83
2021/09/28 16:26:23;;;;;;;8.07;2.60;;;;;;;17.28;56.91;100813.38;20678985;28;20058;-82
2021/09/28 16:36:25;;;;;;;6.50;2.55;;;;;;;17.05;57.40;100811.56;20674894;28;20054;-80
2021/09/28 16:46:26;;;;;;;8.27;3.13;;;;;;;16.74;61.25;100815.31;20656700;28;20062;-81
2021/09/28 16:56:28;;;;;;;8.75;3.50;;;;;;;16.47;62.93;100809.13;20657206;28;20153;-81
2021/09/28 17:06:34;;;;;;;5.63;2.88;;;;;;;15.89;67.99;100813.66;20693169;28;20513;-81
2021/09/28 17:16:38;;;;;;;8.23;4.57;;;;;;;15.25;71.07;100808.50;20683733;28;20485;-81
2021/09/28 17:26:45;;;;;;;11.85;3.58;;;;;;;14.99;72.01;100811.84;20663193;28;20046;-79
2021/09/28 17:36:47;;;;;;;9.25;2.88;;;;;;;14.50;74.41;100813.13;20655576;28;20094;-82
2021/09/28 17:46:49;;;;;;;11.23;3.65;;;;;;;14.35;75.54;100808.22;20680227;28;20465;-80
2021/09/28 17:57:06;;;;;;;8.20;3.50;;;;;;;14.06;77.03;100807.16;20665593;28;20074;-79
2021/09/28 18:07:08;;;;;;;9.43;4.05;;;;;;;13.83;78.19;100802.41;20731789;28;20091;-81
2021/09/28 18:17:10;;;;;;;8.18;3.05;;;;;;;13.86;76.64;100801.50;20800167;28;20468;-80
2021/09/28 18:27:30;;;;;;;8.57;4.22;;;;;;;13.76;77.48;100799.97;20834618;28;20046;-83
2021/09/28 18:37:56;;;;;;;10.18;4.25;;;;;;;13.75;77.52;100804.38;20790470;28;20527;-80
2021/09/28 18:47:58;;;;;;;6.32;2.90;;;;;;;13.70;77.61;100813.25;20786811;28;20455;-83
2021/09/28 18:58:06;;;;;;;8.68;4.05;;;;;;;13.56;78.47;100808.31;20764238;28;20400;-83
2021/09/28 19:08:10;;;;;;;7.05;4.20;;;;;;;13.35;79.37;100812.25;20761753;28;20054;-83
2021/09/28 19:19:19;;;;;;;10.68;5.00;;;;;;;13.12;80.40;100806.53;20794178;28;20125;-83
2021/09/28 19:29:22;;;;;;;9.30;4.60;;;;;;;13.03;81.26;100790.06;20791222;28;20491;-81
2021/09/28 19:39:28;;;;;;;9.65;4.60;;;;;;;12.96;80.63;100790.22;20769455;28;20053;-81
2021/09/28 19:49:30;;;;;;;;;;;;;;;12.72;82.34;100786.28;20744594;28;20060;-80
2021/09/28 19:59:53;;;;;;;9.65;4.88;;;;;;;12.70;82.39;100795.97;20740793;28;19921;-80
2021/09/28 20:40:59;;;;;;;10.07;5.43;;;;;;;13.24;79.15;100770.41;20672785;28;20069;-80
2021/09/28 20:51:03;;;;;;;10.23;5.20;;;;;;;13.22;79.89;100773.94;20667449;28;20046;-81
2021/09/28 21:01:05;;;;;;;9.88;5.07;;;;;;;13.29;79.71;100770.31;20668448;28;20460;-80
2021/09/28 21:11:08;;;;;;;9.68;5.00;;;;;;;13.22;80.63;100752.91;20650633;28;20416;-81
2021/09/28 21:21:10;;;;;;;8.70;4.82;;;;;;;13.24;80.58;100748.50;20667476;28;20069;-81
2021/09/28 21:31:12;;;;;;;8.82;4.80;;;;;;;13.27;80.78;100746.69;20670666;28;20408;-81
2021/09/28 21:41:14;;;;;;;14.35;5.15;;;;;;;13.44;79.69;100748.94;20640650;28;20065;-81
2021/09/28 21:51:18;;;;;;;11.50;5.55;;;;;;;13.30;80.71;100738.69;20648851;28;20097;-81
2021/09/28 22:01:20;;;;;;;10.33;5.13;;;;;;;13.21;81.23;100727.47;20641043;28;20050;-81
2021/09/28 22:11:22;;;;;;;14.05;5.47;;;;;;;13.28;80.95;100710.72;20652525;28;20503;-81
2021/09/28 22:21:24;;;;;;;9.85;5.10;;;;;;;13.27;81.09;100695.81;20657224;28;20173;-81
2021/09/28 22:31:26;;;;;;;10.75;4.82;;;;;;;13.38;80.45;100691.19;20662717;28;20050;-80
2021/09/28 22:41:28;;;;;;;9.52;4.68;;;;;;;13.46;80.62;100684.00;20638558;28;20083;-80
2021/09/28 22:51:33;;;;;;;11.15;5.38;;;;;;;13.42;80.50;100682.34;20681004;28;20057;-82
2021/09/28 23:01:35;;;;;;;10.65;4.82;;;;;;;13.18;82.37;100673.22;20699192;28;20054;-83
2021/09/28 23:11:37;;;;;;;7.47;4.40;;;;;;;13.06;83.95;100678.72;20718609;28;20057;-83
2021/09/28 23:21:41;;;;;;;9.00;4.85;;;;;;;12.99;83.49;100667.47;20700459;28;20386;-83
2021/09/28 23:31:43;;;;;;;10.25;5.10;;;;;;;13.03;82.73;100661.28;20714177;28;20514;-83
2021/09/28 23:41:45;;;;;;;11.63;5.10;;;;;;;13.05;82.85;100658.59;20693837;28;20468;-83
2021/09/28 23:51:47;;;;;;;9.93;5.32;;;;;;;12.96;83.42;100646.50;20693952;28;20455;-83
